sensor_id;sensor_type;location;lat;lon;timestamp;pressure;altitude;pressure_sealevel;temperature;humidity
4410;BME280;2218;51.408;7.208;2022-11-15T00:01:30;99084.28;;;19.72;41.58
4410;BME280;2218;51.408;7.208;2022-11-15T00:04:16;99090.41;;;19.72;41.67
4410;BME280;2218;51.408;7.208;2022-11-15T00:07:02;99078.19;;;19.71;41.55
4410;BME280;2218;51.408;7.208;2022-11-15T00:09:48;99075.53;;;19.71;41.61
4410;BME280;2218;51.408;7.208;2022-11-15T00:12:34;99086.22;;;19.70;41.67
4410;BME280;2218;51.408;7.208;2022-11-15T00:15:19;99080.13;;;19.69;41.90
4410;BME280;2218;51.408;7.208;2022-11-15T00:18:06;99074.84;;;19.69;41.98
4410;BME280;2218;51.408;7.208;2022-11-15T00:21:05;99072.22;;;19.69;41.74
4410;BME280;2218;51.408;7.208;2022-11-15T00:23:53;99068.69;;;19.69;42.01
4410;BME280;2218;51.408;7.208;2022-11-15T00:26:38;99070.50;;;19.68;42.05
4410;BME280;2218;51.408;7.208;2022-11-15T00:29:24;99075.78;;;19.68;42.01
4410;BME280;2218;51.408;7.208;2022-11-15T00:32:10;99078.41;;;19.68;42.03
4410;BME280;2218;51.408;7.208;2022-11-15T00:34:55;99070.63;;;19.67;42.28
4410;BME280;2218;51.408;7.208;2022-11-15T00:37:41;99071.47;;;19.67;41.98
4410;BME280;2218;51.408;7.208;2022-11-15T00:40:28;99080.34;;;19.66;42.21
4410;BME280;2218;51.408;7.208;2022-11-15T00:43:13;99072.44;;;19.66;42.28
4410;BME280;2218;51.408;7.208;2022-11-15T00:45:59;99075.06;;;19.66;42.18
4410;BME280;2218;51.408;7.208;2022-11-15T00:48:45;99068.13;;;19.65;42.25
4410;BME280;2218;51.408;7.208;2022-11-15T00:51:30;99062.88;;;19.65;42.30
4410;BME280;2218;51.408;7.208;2022-11-15T00:54:16;99062.88;;;19.65;42.63
4410;BME280;2218;51.408;7.208;2022-11-15T00:57:03;99072.56;;;19.65;42.50
4410;BME280;2218;51.408;7.208;2022-11-15T00:59:49;99067.31;;;19.65;42.48
4410;BME280;2218;51.408;7.208;2022-11-15T01:02:34;99072.56;;;19.65;42.68
4410;BME280;2218;51.408;7.208;2022-11-15T01:05:20;99066.44;;;19.64;42.61
4410;BME280;2218;51.408;7.208;2022-11-15T01:08:06;99070.88;;;19.63;42.76
4410;BME280;2218;51.408;7.208;2022-11-15T01:10:51;99067.41;;;19.63;42.93
4410;BME280;2218;51.408;7.208;2022-11-15T01:13:39;99070.03;;;19.63;42.70
4410;BME280;2218;51.408;7.208;2022-11-15T01:16:25;99079.75;;;19.62;42.70
4410;BME280;2218;51.408;7.208;2022-11-15T01:19:10;99074.47;;;19.62;42.97
4410;BME280;2218;51.408;7.208;2022-11-15T01:21:56;99073.66;;;19.62;42.83
4410;BME280;2218;51.408;7.208;2022-11-15T01:24:42;99078.09;;;19.61;43.04
4410;BME280;2218;51.408;7.208;2022-11-15T01:27:28;99067.53;;;19.61;42.98
4410;BME280;2218;51.408;7.208;2022-11-15T01:30:15;99067.53;;;19.61;43.16
4410;BME280;2218;51.408;7.208;2022-11-15T01:33:01;99073.66;;;19.62;43.28
4410;BME280;2218;51.408;7.208;2022-11-15T01:35:46;99064.91;;;19.61;43.35
4410;BME280;2218;51.408;7.208;2022-11-15T01:38:32;99055.31;;;19.60;43.14
4410;BME280;2218;51.408;7.208;2022-11-15T01:41:21;99050.91;;;19.61;43.30
4410;BME280;2218;51.408;7.208;2022-11-15T01:44:39;99046.59;;;19.60;43.44
4410;BME280;2218;51.408;7.208;2022-11-15T01:47:31;99043.13;;;19.59;43.61
4410;BME280;2218;51.408;7.208;2022-11-15T01:50:22;99038.69;;;19.60;43.32
4410;BME280;2218;51.408;7.208;2022-11-15T01:53:09;99032.66;;;19.58;43.49
4410;BME280;2218;51.408;7.208;2022-11-15T01:55:55;99036.94;;;19.59;43.33
4410;BME280;2218;51.408;7.208;2022-11-15T01:58:42;99039.59;;;19.59;43.55
4410;BME280;2218;51.408;7.208;2022-11-15T02:01:32;99044.84;;;19.59;43.70
4410;BME280;2218;51.408;7.208;2022-11-15T02:04:25;99041.38;;;19.58;43.55
4410;BME280;2218;51.408;7.208;2022-11-15T02:07:16;99038.75;;;19.58;43.65
4410;BME280;2218;51.408;7.208;2022-11-15T02:10:08;99044.03;;;19.58;43.85
4410;BME280;2218;51.408;7.208;2022-11-15T02:12:56;99042.34;;;19.57;43.69
4410;BME280;2218;51.408;7.208;2022-11-15T02:15:58;99039.72;;;19.57;43.68
4410;BME280;2218;51.408;7.208;2022-11-15T02:18:54;99030.00;;;19.58;43.92
4410;BME280;2218;51.408;7.208;2022-11-15T02:21:50;99024.88;;;19.56;43.43
4410;BME280;2218;51.408;7.208;2022-11-15T02:25:03;99033.63;;;19.57;44.06
4410;BME280;2218;51.408;7.208;2022-11-15T02:28:28;99024.75;;;19.58;43.94
4410;BME280;2218;51.408;7.208;2022-11-15T02:31:28;99030.97;;;19.57;44.03
4410;BME280;2218;51.408;7.208;2022-11-15T02:34:24;99030.97;;;19.57;43.96
4410;BME280;2218;51.408;7.208;2022-11-15T02:37:22;99026.69;;;19.56;44.00
4410;BME280;2218;51.408;7.208;2022-11-15T02:40:23;99020.56;;;19.55;44.25
4410;BME280;2218;51.408;7.208;2022-11-15T02:43:17;99025.84;;;19.55;44.06
4410;BME280;2218;51.408;7.208;2022-11-15T02:46:31;99021.41;;;19.56;44.06
4410;BME280;2218;51.408;7.208;2022-11-15T02:49:37;99018.91;;;19.54;44.05
4410;BME280;2218;51.408;7.208;2022-11-15T02:52:25;99012.66;;;19.55;44.29
4410;BME280;2218;51.408;7.208;2022-11-15T02:55:28;99015.41;;;19.54;44.36
4410;BME280;2218;51.408;7.208;2022-11-15T02:58:48;99017.09;;;19.55;44.27
4410;BME280;2218;51.408;7.208;2022-11-15T03:01:55;99008.47;;;19.53;44.23
4410;BME280;2218;51.408;7.208;2022-11-15T03:04:53;99008.34;;;19.54;44.47
4410;BME280;2218;51.408;7.208;2022-11-15T03:07:48;99003.19;;;19.53;44.32
4410;BME280;2218;51.408;7.208;2022-11-15T03:10:46;99008.47;;;19.53;44.53
4410;BME280;2218;51.408;7.208;2022-11-15T03:13:40;99008.47;;;19.53;44.54
4410;BME280;2218;51.408;7.208;2022-11-15T03:16:36;99012.75;;;19.54;44.46
4410;BME280;2218;51.408;7.208;2022-11-15T03:19:31;99012.75;;;19.54;44.68
4410;BME280;2218;51.408;7.208;2022-11-15T03:22:22;99012.53;;;19.57;44.75
4410;BME280;2218;51.408;7.208;2022-11-15T03:25:13;99013.22;;;19.59;44.56
4410;BME280;2218;51.408;7.208;2022-11-15T03:28:05;99020.09;;;19.61;44.62
4410;BME280;2218;51.408;7.208;2022-11-15T03:30:53;99018.16;;;19.63;44.45
4410;BME280;2218;51.408;7.208;2022-11-15T03:33:41;99023.31;;;19.65;44.47
4410;BME280;2218;51.408;7.208;2022-11-15T03:36:32;99021.25;;;19.69;44.66
4410;BME280;2218;51.408;7.208;2022-11-15T03:39:20;99020.19;;;19.71;44.59
4410;BME280;2218;51.408;7.208;2022-11-15T03:42:19;99017.41;;;19.73;44.58
4410;BME280;2218;51.408;7.208;2022-11-15T03:45:15;99008.44;;;19.75;44.61
4410;BME280;2218;51.408;7.208;2022-11-15T03:48:10;99005.78;;;19.75;44.56
4410;BME280;2218;51.408;7.208;2022-11-15T03:50:57;99003.03;;;19.77;44.48
4410;BME280;2218;51.408;7.208;2022-11-15T03:53:45;99001.34;;;19.76;44.38
4410;BME280;2218;51.408;7.208;2022-11-15T03:56:31;99002.19;;;19.76;44.71
4410;BME280;2218;51.408;7.208;2022-11-15T03:59:16;98994.28;;;19.76;44.26
4410;BME280;2218;51.408;7.208;2022-11-15T04:02:02;98993.44;;;19.76;44.65
4410;BME280;2218;51.408;7.208;2022-11-15T04:04:48;98995.09;;;19.77;44.65
4410;BME280;2218;51.408;7.208;2022-11-15T04:07:33;98989.84;;;19.77;44.91
4410;BME280;2218;51.408;7.208;2022-11-15T04:10:20;98987.19;;;19.77;44.86
4410;BME280;2218;51.408;7.208;2022-11-15T04:13:06;98985.41;;;19.77;44.63
4410;BME280;2218;51.408;7.208;2022-11-15T04:15:51;98982.75;;;19.77;44.47
4410;BME280;2218;51.408;7.208;2022-11-15T04:18:37;98983.59;;;19.78;44.83
4410;BME280;2218;51.408;7.208;2022-11-15T04:21:23;98989.69;;;19.78;45.00
4410;BME280;2218;51.408;7.208;2022-11-15T04:24:26;98988.03;;;19.77;44.76
4410;BME280;2218;51.408;7.208;2022-11-15T04:27:13;98984.44;;;19.78;45.00
4410;BME280;2218;51.408;7.208;2022-11-15T04:29:59;98982.75;;;19.77;45.08
4410;BME280;2218;51.408;7.208;2022-11-15T04:32:45;98984.44;;;19.78;44.99
4410;BME280;2218;51.408;7.208;2022-11-15T04:35:30;98989.69;;;19.78;45.08
4410;BME280;2218;51.408;7.208;2022-11-15T04:38:16;98997.50;;;19.80;44.92
4410;BME280;2218;51.408;7.208;2022-11-15T04:41:02;98986.13;;;19.79;45.14
4410;BME280;2218;51.408;7.208;2022-11-15T04:43:49;98985.25;;;19.79;45.17
4410;BME280;2218;51.408;7.208;2022-11-15T04:46:34;98986.97;;;19.80;45.06
4410;BME280;2218;51.408;7.208;2022-11-15T04:49:20;98978.31;;;19.78;45.26
4410;BME280;2218;51.408;7.208;2022-11-15T04:52:06;98979.06;;;19.80;45.18
4410;BME280;2218;51.408;7.208;2022-11-15T04:54:51;98980.84;;;19.79;45.21
4410;BME280;2218;51.408;7.208;2022-11-15T04:57:37;98985.25;;;19.79;45.24
4410;BME280;2218;51.408;7.208;2022-11-15T05:00:24;98981.69;;;19.80;45.27
4410;BME280;2218;51.408;7.208;2022-11-15T05:03:10;98989.59;;;19.80;45.33
4410;BME280;2218;51.408;7.208;2022-11-15T05:06:13;98989.69;;;19.78;45.44
4410;BME280;2218;51.408;7.208;2022-11-15T05:08:59;98986.13;;;19.79;45.64
4410;BME280;2218;51.408;7.208;2022-11-15T05:11:45;98984.31;;;19.80;45.71
4410;BME280;2218;51.408;7.208;2022-11-15T05:14:31;98984.31;;;19.80;45.44
4410;BME280;2218;51.408;7.208;2022-11-15T05:17:18;98978.91;;;19.81;45.56
4410;BME280;2218;51.408;7.208;2022-11-15T05:20:05;98985.03;;;19.82;45.67
4410;BME280;2218;51.408;7.208;2022-11-15T05:22:50;98989.47;;;19.81;45.58
4410;BME280;2218;51.408;7.208;2022-11-15T05:25:36;98985.03;;;19.82;45.69
4410;BME280;2218;51.408;7.208;2022-11-15T05:28:22;98991.13;;;19.82;45.66
4410;BME280;2218;51.408;7.208;2022-11-15T05:31:11;98980.56;;;19.82;45.90
4410;BME280;2218;51.408;7.208;2022-11-15T05:34:01;98982.25;;;19.83;46.02
4410;BME280;2218;51.408;7.208;2022-11-15T05:36:49;98982.25;;;19.83;45.72
4410;BME280;2218;51.408;7.208;2022-11-15T05:39:34;98976.03;;;19.84;46.10
4410;BME280;2218;51.408;7.208;2022-11-15T05:42:20;98973.41;;;19.84;46.05
4410;BME280;2218;51.408;7.208;2022-11-15T05:45:08;98969.91;;;19.84;45.85
4410;BME280;2218;51.408;7.208;2022-11-15T05:47:58;98966.31;;;19.85;46.11
4410;BME280;2218;51.408;7.208;2022-11-15T05:50:48;98972.44;;;19.85;46.11
4410;BME280;2218;51.408;7.208;2022-11-15T05:53:34;98964.53;;;19.85;46.17
4410;BME280;2218;51.408;7.208;2022-11-15T05:56:21;98965.34;;;19.86;46.23
4410;BME280;2218;51.408;7.208;2022-11-15T05:59:08;98967.00;;;19.87;46.06
4410;BME280;2218;51.408;7.208;2022-11-15T06:01:54;98970.47;;;19.87;46.16
4410;BME280;2218;51.408;7.208;2022-11-15T06:04:40;98966.19;;;19.86;46.19
4410;BME280;2218;51.408;7.208;2022-11-15T06:07:29;98969.50;;;19.88;46.26
4410;BME280;2218;51.408;7.208;2022-11-15T06:10:14;98974.78;;;19.88;46.47
4410;BME280;2218;51.408;7.208;2022-11-15T06:13:03;98967.84;;;19.87;46.26
4410;BME280;2218;51.408;7.208;2022-11-15T06:15:49;98981.75;;;19.90;46.41
4410;BME280;2218;51.408;7.208;2022-11-15T06:18:35;98975.66;;;19.89;46.39
4410;BME280;2218;51.408;7.208;2022-11-15T06:21:21;98986.19;;;19.89;46.41
4410;BME280;2218;51.408;7.208;2022-11-15T06:24:08;98982.59;;;19.90;46.51
4410;BME280;2218;51.408;7.208;2022-11-15T06:26:54;98988.69;;;19.91;46.36
4410;BME280;2218;51.408;7.208;2022-11-15T06:29:39;98986.50;;;19.96;46.65
4410;BME280;2218;51.408;7.208;2022-11-15T06:32:24;98990.06;;;20.06;47.20
4410;BME280;2218;51.408;7.208;2022-11-15T06:35:11;98994.66;;;20.13;47.83
4410;BME280;2218;51.408;7.208;2022-11-15T06:38:03;99004.72;;;20.20;47.88
4410;BME280;2218;51.408;7.208;2022-11-15T06:40:50;99000.28;;;20.20;47.74
4410;BME280;2218;51.408;7.208;2022-11-15T06:43:37;98998.88;;;20.16;47.45
4410;BME280;2218;51.408;7.208;2022-11-15T06:46:22;99001.06;;;20.11;47.20
4410;BME280;2218;51.408;7.208;2022-11-15T06:49:08;98996.03;;;20.08;47.12
4410;BME280;2218;51.408;7.208;2022-11-15T06:51:54;99004.91;;;20.07;47.05
4410;BME280;2218;51.408;7.208;2022-11-15T06:54:40;99002.41;;;20.05;46.81
4410;BME280;2218;51.408;7.208;2022-11-15T06:57:26;99009.94;;;20.10;47.41
4410;BME280;2218;51.408;7.208;2022-11-15T07:00:14;99010.94;;;20.19;47.62
4410;BME280;2218;51.408;7.208;2022-11-15T07:03:00;99014.50;;;20.29;47.59
4410;BME280;2218;51.408;7.208;2022-11-15T07:05:52;99019.25;;;20.35;47.71
4410;BME280;2218;51.408;7.208;2022-11-15T07:08:38;99023.19;;;20.40;47.58
4410;BME280;2218;51.408;7.208;2022-11-15T07:11:25;99025.44;;;20.45;47.64
4410;BME280;2218;51.408;7.208;2022-11-15T07:14:12;99022.44;;;20.50;47.61
4410;BME280;2218;51.408;7.208;2022-11-15T07:16:58;99025.75;;;20.52;47.59
4410;BME280;2218;51.408;7.208;2022-11-15T07:19:44;99028.16;;;20.55;47.53
4410;BME280;2218;51.408;7.208;2022-11-15T07:22:29;99034.13;;;20.57;47.57
4410;BME280;2218;51.408;7.208;2022-11-15T07:25:14;99034.66;;;20.51;47.75
4410;BME280;2218;51.408;7.208;2022-11-15T07:28:01;99040.19;;;20.48;47.55
4410;BME280;2218;51.408;7.208;2022-11-15T07:30:48;99040.44;;;20.45;47.50
4410;BME280;2218;51.408;7.208;2022-11-15T07:33:34;99038.88;;;20.42;47.59
4410;BME280;2218;51.408;7.208;2022-11-15T07:36:19;99046.09;;;20.40;47.54
4410;BME280;2218;51.408;7.208;2022-11-15T07:39:05;99051.47;;;20.38;47.39
4410;BME280;2218;51.408;7.208;2022-11-15T07:41:50;99043.69;;;20.37;46.94
4410;BME280;2218;51.408;7.208;2022-11-15T07:44:56;99042.88;;;20.36;47.05
4410;BME280;2218;51.408;7.208;2022-11-15T07:47:46;99045.66;;;20.35;47.04
4410;BME280;2218;51.408;7.208;2022-11-15T07:50:32;99042.19;;;20.34;46.80
4410;BME280;2218;51.408;7.208;2022-11-15T07:53:17;99058.84;;;20.35;46.91
4410;BME280;2218;51.408;7.208;2022-11-15T07:56:06;99060.66;;;20.34;46.85
4410;BME280;2218;51.408;7.208;2022-11-15T07:58:51;99062.56;;;20.32;46.66
4410;BME280;2218;51.408;7.208;2022-11-15T08:01:37;99063.41;;;20.33;46.71
4410;BME280;2218;51.408;7.208;2022-11-15T08:04:24;99057.19;;;20.34;46.78
4410;BME280;2218;51.408;7.208;2022-11-15T08:07:10;99060.75;;;20.33;46.95
4410;BME280;2218;51.408;7.208;2022-11-15T08:09:56;99063.41;;;20.33;46.58
4410;BME280;2218;51.408;7.208;2022-11-15T08:12:41;99063.41;;;20.33;46.49
4410;BME280;2218;51.408;7.208;2022-11-15T08:15:28;99052.00;;;20.32;46.72
4410;BME280;2218;51.408;7.208;2022-11-15T08:18:16;99052.00;;;20.32;46.55
4410;BME280;2218;51.408;7.208;2022-11-15T08:21:04;99045.75;;;20.33;46.51
4410;BME280;2218;51.408;7.208;2022-11-15T08:23:50;99048.41;;;20.33;46.54
4410;BME280;2218;51.408;7.208;2022-11-15T08:26:36;99046.72;;;20.32;46.84
4410;BME280;2218;51.408;7.208;2022-11-15T08:29:21;99054.66;;;20.32;46.65
4410;BME280;2218;51.408;7.208;2022-11-15T08:32:06;99056.31;;;20.33;46.67
4410;BME280;2218;51.408;7.208;2022-11-15T08:34:52;99052.00;;;20.32;46.79
4410;BME280;2218;51.408;7.208;2022-11-15T08:37:39;99058.13;;;20.33;46.76
4410;BME280;2218;51.408;7.208;2022-11-15T08:40:24;99046.88;;;20.31;46.77
4410;BME280;2218;51.408;7.208;2022-11-15T08:43:11;99050.19;;;20.33;46.71
4410;BME280;2218;51.408;7.208;2022-11-15T08:45:57;99052.84;;;20.33;46.95
4410;BME280;2218;51.408;7.208;2022-11-15T08:48:42;99051.19;;;20.32;47.05
4410;BME280;2218;51.408;7.208;2022-11-15T08:51:28;99043.25;;;20.32;46.89
4410;BME280;2218;51.408;7.208;2022-11-15T08:54:15;99036.19;;;20.32;46.87
4410;BME280;2218;51.408;7.208;2022-11-15T08:57:00;99040.63;;;20.32;46.81
4410;BME280;2218;51.408;7.208;2022-11-15T08:59:46;99041.44;;;20.32;47.06
4410;BME280;2218;51.408;7.208;2022-11-15T09:02:31;99039.78;;;20.31;46.80
4410;BME280;2218;51.408;7.208;2022-11-15T09:05:17;99036.19;;;20.32;46.73
4410;BME280;2218;51.408;7.208;2022-11-15T09:08:04;99032.56;;;20.33;47.00
4410;BME280;2218;51.408;7.208;2022-11-15T09:10:51;99033.53;;;20.32;46.94
4410;BME280;2218;51.408;7.208;2022-11-15T09:13:37;99030.91;;;20.32;46.88
4410;BME280;2218;51.408;7.208;2022-11-15T09:16:22;99030.91;;;20.32;46.87
4410;BME280;2218;51.408;7.208;2022-11-15T09:19:08;99025.63;;;20.32;46.78
4410;BME280;2218;51.408;7.208;2022-11-15T09:21:53;99025.63;;;20.32;46.77
4410;BME280;2218;51.408;7.208;2022-11-15T09:24:39;99024.78;;;20.32;46.77
4410;BME280;2218;51.408;7.208;2022-11-15T09:27:29;99021.16;;;20.33;46.90
4410;BME280;2218;51.408;7.208;2022-11-15T09:30:16;99020.34;;;20.32;46.73
4410;BME280;2218;51.408;7.208;2022-11-15T09:33:07;99015.06;;;20.32;46.85
4410;BME280;2218;51.408;7.208;2022-11-15T09:35:53;99015.06;;;20.32;46.79
4410;BME280;2218;51.408;7.208;2022-11-15T09:38:38;99017.69;;;20.32;46.95
4410;BME280;2218;51.408;7.208;2022-11-15T09:42:02;99009.78;;;20.32;46.85
4410;BME280;2218;51.408;7.208;2022-11-15T09:45:13;98999.22;;;20.32;46.71
4410;BME280;2218;51.408;7.208;2022-11-15T09:48:30;99006.19;;;20.33;46.99
4410;BME280;2218;51.408;7.208;2022-11-15T09:51:28;99014.09;;;20.33;46.88
4410;BME280;2218;51.408;7.208;2022-11-15T09:54:11;99020.22;;;20.34;46.57
4410;BME280;2218;51.408;7.208;2022-11-15T09:56:43;99018.44;;;20.34;46.62
4410;BME280;2218;51.408;7.208;2022-11-15T09:59:29;99018.44;;;20.34;46.58
4410;BME280;2218;51.408;7.208;2022-11-15T10:02:16;99012.19;;;20.35;46.62
4410;BME280;2218;51.408;7.208;2022-11-15T10:04:47;99005.94;;;20.36;46.47
4410;BME280;2218;51.408;7.208;2022-11-15T10:07:20;99000.78;;;20.35;46.48
4410;BME280;2218;51.408;7.208;2022-11-15T10:09:53;98992.03;;;20.34;46.55
4410;BME280;2218;51.408;7.208;2022-11-15T10:12:23;98990.22;;;20.35;46.59
4410;BME280;2218;51.408;7.208;2022-11-15T10:15:02;98985.78;;;20.35;46.71
4410;BME280;2218;51.408;7.208;2022-11-15T10:17:59;98975.22;;;20.35;46.51
4410;BME280;2218;51.408;7.208;2022-11-15T10:20:42;98971.75;;;20.35;46.55
4410;BME280;2218;51.408;7.208;2022-11-15T10:23:14;98968.97;;;20.36;46.35
4410;BME280;2218;51.408;7.208;2022-11-15T10:25:43;98961.06;;;20.36;46.29
4410;BME280;2218;51.408;7.208;2022-11-15T10:28:16;98965.50;;;20.36;46.29
4410;BME280;2218;51.408;7.208;2022-11-15T10:30:46;98961.06;;;20.36;46.25
4410;BME280;2218;51.408;7.208;2022-11-15T10:33:24;98958.44;;;20.36;46.29
4410;BME280;2218;51.408;7.208;2022-11-15T10:36:30;98949.53;;;20.37;45.63
4410;BME280;2218;51.408;7.208;2022-11-15T10:38:58;98947.88;;;20.36;46.13
4410;BME280;2218;51.408;7.208;2022-11-15T10:41:38;98947.88;;;20.36;46.29
4410;BME280;2218;51.408;7.208;2022-11-15T10:44:24;98938.16;;;20.37;46.11
4410;BME280;2218;51.408;7.208;2022-11-15T10:47:25;98933.72;;;20.37;46.11
4410;BME280;2218;51.408;7.208;2022-11-15T10:50:02;98926.75;;;20.36;45.94
4410;BME280;2218;51.408;7.208;2022-11-15T10:52:31;98934.53;;;20.38;46.13
4410;BME280;2218;51.408;7.208;2022-11-15T10:55:19;98933.72;;;20.37;45.98
4410;BME280;2218;51.408;7.208;2022-11-15T10:57:51;98929.25;;;20.38;45.95
4410;BME280;2218;51.408;7.208;2022-11-15T11:00:31;98923.97;;;20.38;45.83
4410;BME280;2218;51.408;7.208;2022-11-15T11:03:01;98918.69;;;20.38;46.08
4410;BME280;2218;51.408;7.208;2022-11-15T11:05:33;98924.81;;;20.38;45.73
4410;BME280;2218;51.408;7.208;2022-11-15T11:08:03;98918.69;;;20.38;45.89
4410;BME280;2218;51.408;7.208;2022-11-15T11:10:31;98920.41;;;20.39;45.76
4410;BME280;2218;51.408;7.208;2022-11-15T11:13:13;98909.84;;;20.39;46.12
4410;BME280;2218;51.408;7.208;2022-11-15T11:15:44;98908.88;;;20.40;45.96
4410;BME280;2218;51.408;7.208;2022-11-15T11:18:22;98901.94;;;20.39;45.92
4410;BME280;2218;51.408;7.208;2022-11-15T11:21:02;98905.41;;;20.39;45.83
4410;BME280;2218;51.408;7.208;2022-11-15T11:23:45;98908.97;;;20.38;45.93
4410;BME280;2218;51.408;7.208;2022-11-15T11:26:40;98895.66;;;20.40;45.85
4410;BME280;2218;51.408;7.208;2022-11-15T11:29:33;98893.88;;;20.40;45.56
4410;BME280;2218;51.408;7.208;2022-11-15T11:32:24;98888.59;;;20.40;45.68
4410;BME280;2218;51.408;7.208;2022-11-15T11:35:04;98883.31;;;20.40;45.83
4410;BME280;2218;51.408;7.208;2022-11-15T11:37:45;98881.50;;;20.41;45.84
4410;BME280;2218;51.408;7.208;2022-11-15T11:40:29;98870.94;;;20.41;45.70
4410;BME280;2218;51.408;7.208;2022-11-15T11:43:08;98868.16;;;20.43;45.73
4410;BME280;2218;51.408;7.208;2022-11-15T11:45:58;98869.84;;;20.44;45.58
4410;BME280;2218;51.408;7.208;2022-11-15T11:48:41;98864.56;;;20.44;45.59
4410;BME280;2218;51.408;7.208;2022-11-15T11:51:18;98859.28;;;20.44;45.50
4410;BME280;2218;51.408;7.208;2022-11-15T11:53:55;98860.13;;;20.44;45.54
4410;BME280;2218;51.408;7.208;2022-11-15T11:56:28;98854.84;;;20.44;45.56
4410;BME280;2218;51.408;7.208;2022-11-15T11:59:05;98857.50;;;20.44;45.69
4410;BME280;2218;51.408;7.208;2022-11-15T12:01:38;98860.97;;;20.45;45.66
4410;BME280;2218;51.408;7.208;2022-11-15T12:04:14;98854.00;;;20.44;45.57
4410;BME280;2218;51.408;7.208;2022-11-15T12:06:50;98861.91;;;20.44;45.64
4410;BME280;2218;51.408;7.208;2022-11-15T12:09:27;98854.00;;;20.44;45.61
4410;BME280;2218;51.408;7.208;2022-11-15T12:12:11;98862.78;;;20.44;45.56
4410;BME280;2218;51.408;7.208;2022-11-15T12:14:49;98860.97;;;20.45;45.57
4410;BME280;2218;51.408;7.208;2022-11-15T12:17:23;98863.59;;;20.45;45.42
4410;BME280;2218;51.408;7.208;2022-11-15T12:19:52;98868.88;;;20.45;45.45
4410;BME280;2218;51.408;7.208;2022-11-15T12:22:32;98868.06;;;20.44;44.84
4410;BME280;2218;51.408;7.208;2022-11-15T12:25:14;98860.13;;;20.44;45.26
4410;BME280;2218;51.408;7.208;2022-11-15T12:27:50;98854.84;;;20.44;45.35
4410;BME280;2218;51.408;7.208;2022-11-15T12:30:22;98860.97;;;20.45;45.19
4410;BME280;2218;51.408;7.208;2022-11-15T12:32:54;98854.84;;;20.44;45.36
4410;BME280;2218;51.408;7.208;2022-11-15T12:35:38;98858.31;;;20.45;45.36
4410;BME280;2218;51.408;7.208;2022-11-15T12:38:10;98848.72;;;20.44;45.11
4410;BME280;2218;51.408;7.208;2022-11-15T12:41:16;98841.66;;;20.44;45.13
4410;BME280;2218;51.408;7.208;2022-11-15T12:43:45;98838.03;;;20.45;45.09
4410;BME280;2218;51.408;7.208;2022-11-15T12:46:21;98835.41;;;20.45;45.23
4410;BME280;2218;51.408;7.208;2022-11-15T12:48:53;98824.03;;;20.45;45.12
4410;BME280;2218;51.408;7.208;2022-11-15T12:57:40;98806.50;;;20.44;44.71
4410;BME280;2218;51.408;7.208;2022-11-15T13:00:43;98799.44;;;20.44;44.94
4410;BME280;2218;51.408;7.208;2022-11-15T13:03:27;98781.78;;;20.45;44.62
4410;BME280;2218;51.408;7.208;2022-11-15T13:06:37;98790.53;;;20.45;44.77
4410;BME280;2218;51.408;7.208;2022-11-15T13:09:57;98779.16;;;20.45;44.68
4410;BME280;2218;51.408;7.208;2022-11-15T13:12:51;98775.53;;;20.46;44.38
4410;BME280;2218;51.408;7.208;2022-11-15T13:15:53;98769.31;;;20.47;44.00
4410;BME280;2218;51.408;7.208;2022-11-15T13:18:37;98775.53;;;20.46;44.72
4410;BME280;2218;51.408;7.208;2022-11-15T13:21:20;98769.31;;;20.47;45.07
4410;BME280;2218;51.408;7.208;2022-11-15T13:24:13;98762.34;;;20.46;44.65
4410;BME280;2218;51.408;7.208;2022-11-15T13:26:42;98753.47;;;20.47;44.58
4410;BME280;2218;51.408;7.208;2022-11-15T13:29:18;98749.16;;;20.46;44.55
4410;BME280;2218;51.408;7.208;2022-11-15T13:31:46;98751.78;;;20.46;44.44
4410;BME280;2218;51.408;7.208;2022-11-15T13:34:27;98753.47;;;20.47;44.35
4410;BME280;2218;51.408;7.208;2022-11-15T13:36:55;98747.34;;;20.46;44.38
4410;BME280;2218;51.408;7.208;2022-11-15T13:39:29;98742.94;;;20.47;44.44
4410;BME280;2218;51.408;7.208;2022-11-15T13:41:59;98737.66;;;20.47;44.23
4410;BME280;2218;51.408;7.208;2022-11-15T13:44:29;98730.69;;;20.46;44.39
4410;BME280;2218;51.408;7.208;2022-11-15T13:47:05;98736.94;;;20.45;44.41
4410;BME280;2218;51.408;7.208;2022-11-15T13:49:33;98733.47;;;20.44;44.34
4410;BME280;2218;51.408;7.208;2022-11-15T13:52:05;98732.59;;;20.44;44.40
4410;BME280;2218;51.408;7.208;2022-11-15T13:54:35;98727.31;;;20.44;44.20
4410;BME280;2218;51.408;7.208;2022-11-15T13:57:12;98731.78;;;20.43;44.38
4410;BME280;2218;51.408;7.208;2022-11-15T13:59:48;98729.97;;;20.44;44.17
4410;BME280;2218;51.408;7.208;2022-11-15T14:02:18;98731.78;;;20.43;44.16
4410;BME280;2218;51.408;7.208;2022-11-15T14:04:50;98718.56;;;20.43;44.33
4410;BME280;2218;51.408;7.208;2022-11-15T14:07:21;98719.56;;;20.42;44.25
4410;BME280;2218;51.408;7.208;2022-11-15T14:09:49;98712.47;;;20.43;44.09
4410;BME280;2218;51.408;7.208;2022-11-15T14:12:29;98700.25;;;20.42;44.34
4410;BME280;2218;51.408;7.208;2022-11-15T14:14:57;98704.53;;;20.43;43.93
4410;BME280;2218;51.408;7.208;2022-11-15T14:17:37;98693.31;;;20.40;44.10
4410;BME280;2218;51.408;7.208;2022-11-15T14:20:26;98694.97;;;20.42;43.92
4410;BME280;2218;51.408;7.208;2022-11-15T14:22:55;98684.56;;;20.40;44.24
4410;BME280;2218;51.408;7.208;2022-11-15T14:25:24;98675.81;;;20.39;44.19
4410;BME280;2218;51.408;7.208;2022-11-15T14:28:29;98665.25;;;20.39;44.18
4410;BME280;2218;51.408;7.208;2022-11-15T14:31:00;98662.63;;;20.39;43.99
4410;BME280;2218;51.408;7.208;2022-11-15T14:33:29;98665.25;;;20.39;44.13
4410;BME280;2218;51.408;7.208;2022-11-15T14:36:03;98656.38;;;20.40;44.21
4410;BME280;2218;51.408;7.208;2022-11-15T14:38:31;98654.72;;;20.39;44.13
4410;BME280;2218;51.408;7.208;2022-11-15T14:40:58;98653.00;;;20.38;43.97
4410;BME280;2218;51.408;7.208;2022-11-15T14:43:26;98645.97;;;20.39;43.99
4410;BME280;2218;51.408;7.208;2022-11-15T14:45:53;98645.97;;;20.39;43.88
4410;BME280;2218;51.408;7.208;2022-11-15T14:48:20;98636.34;;;20.38;44.09
4410;BME280;2218;51.408;7.208;2022-11-15T14:50:47;98634.53;;;20.38;43.98
4410;BME280;2218;51.408;7.208;2022-11-15T14:53:17;98626.78;;;20.37;44.04
4410;BME280;2218;51.408;7.208;2022-11-15T14:55:45;98629.25;;;20.38;44.16
4410;BME280;2218;51.408;7.208;2022-11-15T14:58:12;98627.59;;;20.37;44.07
4410;BME280;2218;51.408;7.208;2022-11-15T15:00:41;98617.88;;;20.38;43.98
4410;BME280;2218;51.408;7.208;2022-11-15T15:03:08;98617.06;;;20.37;43.97
4410;BME280;2218;51.408;7.208;2022-11-15T15:05:38;98610.94;;;20.37;44.05